sensor_id;sensor_type;location;lat;lon;timestamp;P1;durP1;ratioP1;P2;durP2;ratioP2
22780;SDS011;11557;50.884;4.322;2022-09-24T00:00:55;28.23;;;23.95;;
22780;SDS011;11557;50.884;4.322;2022-09-24T00:03:22;36.25;;;26.00;;
22780;SDS011;11557;50.884;4.322;2022-09-24T00:05:50;29.75;;;24.35;;
22780;SDS011;11557;50.884;4.322;2022-09-24T00:08:17;28.33;;;23.35;;
22780;SDS011;11557;50.884;4.322;2022-09-24T00:10:44;27.85;;;23.27;;
22780;SDS011;11557;50.884;4.322;2022-09-24T00:13:12;28.42;;;22.90;;
22780;SDS011;11557;50.884;4.322;2022-09-24T00:15:40;27.15;;;23.92;;
22780;SDS011;11557;50.884;4.322;2022-09-24T00:18:08;25.63;;;22.73;;
22780;SDS011;11557;50.884;4.322;2022-09-24T00:20:35;26.10;;;21.90;;
22780;SDS011;11557;50.884;4.322;2022-09-24T00:23:02;25.27;;;21.35;;
22780;SDS011;11557;50.884;4.322;2022-09-24T00:25:28;30.02;;;21.55;;
22780;SDS011;11557;50.884;4.322;2022-09-24T00:28:13;24.87;;;20.80;;
22780;SDS011;11557;50.884;4.322;2022-09-24T00:30:39;23.25;;;19.45;;
22780;SDS011;11557;50.884;4.322;2022-09-24T00:33:05;22.63;;;19.38;;
22780;SDS011;11557;50.884;4.322;2022-09-24T00:35:32;23.73;;;19.17;;
22780;SDS011;11557;50.884;4.322;2022-09-24T00:37:58;23.67;;;19.70;;
22780;SDS011;11557;50.884;4.322;2022-09-24T00:40:31;23.48;;;18.90;;
22780;SDS011;11557;50.884;4.322;2022-09-24T00:42:58;23.88;;;19.58;;
22780;SDS011;11557;50.884;4.322;2022-09-24T00:45:24;23.55;;;20.55;;
22780;SDS011;11557;50.884;4.322;2022-09-24T00:47:53;22.95;;;18.15;;
22780;SDS011;11557;50.884;4.322;2022-09-24T00:50:24;19.95;;;17.63;;
22780;SDS011;11557;50.884;4.322;2022-09-24T00:55:27;22.45;;;17.73;;
22780;SDS011;11557;50.884;4.322;2022-09-24T00:57:58;18.13;;;16.10;;
22780;SDS011;11557;50.884;4.322;2022-09-24T01:00:27;19.97;;;16.20;;
22780;SDS011;11557;50.884;4.322;2022-09-24T01:02:57;23.70;;;17.13;;
22780;SDS011;11557;50.884;4.322;2022-09-24T01:05:27;24.95;;;17.90;;
22780;SDS011;11557;50.884;4.322;2022-09-24T01:07:53;20.90;;;17.00;;
22780;SDS011;11557;50.884;4.322;2022-09-24T01:10:20;23.00;;;17.08;;
22780;SDS011;11557;50.884;4.322;2022-09-24T01:13:52;20.90;;;17.20;;
22780;SDS011;11557;50.884;4.322;2022-09-24T01:21:43;20.65;;;17.63;;
22780;SDS011;11557;50.884;4.322;2022-09-24T01:27:16;22.50;;;18.15;;
22780;SDS011;11557;50.884;4.322;2022-09-24T01:32:34;23.85;;;18.67;;
22780;SDS011;11557;50.884;4.322;2022-09-24T01:35:12;24.38;;;19.60;;
22780;SDS011;11557;50.884;4.322;2022-09-24T01:38:20;21.40;;;17.67;;
22780;SDS011;11557;50.884;4.322;2022-09-24T01:40:49;27.13;;;19.98;;
22780;SDS011;11557;50.884;4.322;2022-09-24T01:43:18;23.58;;;19.60;;
22780;SDS011;11557;50.884;4.322;2022-09-24T01:45:46;26.30;;;20.88;;
22780;SDS011;11557;50.884;4.322;2022-09-24T01:48:12;26.08;;;20.95;;
22780;SDS011;11557;50.884;4.322;2022-09-24T01:50:49;25.92;;;21.48;;
22780;SDS011;11557;50.884;4.322;2022-09-24T01:53:23;30.53;;;21.47;;
22780;SDS011;11557;50.884;4.322;2022-09-24T01:56:14;35.25;;;23.58;;
22780;SDS011;11557;50.884;4.322;2022-09-24T01:58:54;27.33;;;22.42;;
22780;SDS011;11557;50.884;4.322;2022-09-24T02:01:28;32.38;;;23.63;;
22780;SDS011;11557;50.884;4.322;2022-09-24T02:04:00;28.48;;;22.65;;
22780;SDS011;11557;50.884;4.322;2022-09-24T02:06:33;31.85;;;23.63;;
22780;SDS011;11557;50.884;4.322;2022-09-24T02:09:02;34.75;;;25.23;;
22780;SDS011;11557;50.884;4.322;2022-09-24T02:11:28;34.17;;;26.10;;
22780;SDS011;11557;50.884;4.322;2022-09-24T02:13:59;32.28;;;25.77;;
22780;SDS011;11557;50.884;4.322;2022-09-24T02:16:35;35.65;;;26.77;;
22780;SDS011;11557;50.884;4.322;2022-09-24T02:19:13;33.92;;;25.33;;
22780;SDS011;11557;50.884;4.322;2022-09-24T02:21:41;35.88;;;26.08;;
22780;SDS011;11557;50.884;4.322;2022-09-24T02:24:12;33.20;;;25.48;;
22780;SDS011;11557;50.884;4.322;2022-09-24T02:26:40;33.47;;;24.65;;
22780;SDS011;11557;50.884;4.322;2022-09-24T02:29:06;32.47;;;26.02;;
22780;SDS011;11557;50.884;4.322;2022-09-24T02:31:33;33.90;;;25.48;;
22780;SDS011;11557;50.884;4.322;2022-09-24T02:34:09;30.60;;;24.50;;
22780;SDS011;11557;50.884;4.322;2022-09-24T02:36:51;32.47;;;24.80;;
22780;SDS011;11557;50.884;4.322;2022-09-24T02:39:23;31.95;;;24.73;;
22780;SDS011;11557;50.884;4.322;2022-09-24T02:41:49;33.17;;;24.20;;
22780;SDS011;11557;50.884;4.322;2022-09-24T02:44:16;28.13;;;22.80;;
22780;SDS011;11557;50.884;4.322;2022-09-24T02:46:46;28.85;;;22.20;;
22780;SDS011;11557;50.884;4.322;2022-09-24T02:49:13;30.88;;;23.08;;
22780;SDS011;11557;50.884;4.322;2022-09-24T02:51:39;26.30;;;22.20;;
22780;SDS011;11557;50.884;4.322;2022-09-24T02:54:05;32.00;;;23.60;;
22780;SDS011;11557;50.884;4.322;2022-09-24T02:56:31;30.35;;;23.65;;
22780;SDS011;11557;50.884;4.322;2022-09-24T02:58:56;28.33;;;21.92;;
22780;SDS011;11557;50.884;4.322;2022-09-24T03:01:22;32.03;;;22.15;;
22780;SDS011;11557;50.884;4.322;2022-09-24T03:03:49;26.90;;;21.77;;
22780;SDS011;11557;50.884;4.322;2022-09-24T03:06:14;28.70;;;22.02;;
22780;SDS011;11557;50.884;4.322;2022-09-24T03:08:41;27.17;;;22.30;;
22780;SDS011;11557;50.884;4.322;2022-09-24T03:11:10;30.33;;;22.27;;
22780;SDS011;11557;50.884;4.322;2022-09-24T03:13:36;29.27;;;20.75;;
22780;SDS011;11557;50.884;4.322;2022-09-24T03:16:03;28.63;;;22.98;;
22780;SDS011;11557;50.884;4.322;2022-09-24T03:18:29;27.90;;;22.98;;
22780;SDS011;11557;50.884;4.322;2022-09-24T03:20:56;29.83;;;23.42;;
22780;SDS011;11557;50.884;4.322;2022-09-24T03:23:23;35.75;;;24.38;;
22780;SDS011;11557;50.884;4.322;2022-09-24T03:25:49;29.13;;;22.67;;
22780;SDS011;11557;50.884;4.322;2022-09-24T03:28:15;28.85;;;22.88;;
22780;SDS011;11557;50.884;4.322;2022-09-24T03:30:41;27.30;;;22.52;;
22780;SDS011;11557;50.884;4.322;2022-09-24T03:36:04;31.02;;;23.98;;
22780;SDS011;11557;50.884;4.322;2022-09-24T03:38:33;29.02;;;23.30;;
22780;SDS011;11557;50.884;4.322;2022-09-24T03:41:00;32.40;;;22.65;;
22780;SDS011;11557;50.884;4.322;2022-09-24T03:43:26;34.25;;;24.75;;
22780;SDS011;11557;50.884;4.322;2022-09-24T03:45:52;36.38;;;24.90;;
22780;SDS011;11557;50.884;4.322;2022-09-24T03:48:19;29.73;;;22.92;;
22780;SDS011;11557;50.884;4.322;2022-09-24T03:50:46;39.20;;;26.40;;
22780;SDS011;11557;50.884;4.322;2022-09-24T03:53:12;30.85;;;24.85;;
22780;SDS011;11557;50.884;4.322;2022-09-24T03:55:52;32.97;;;24.10;;
22780;SDS011;11557;50.884;4.322;2022-09-24T03:58:20;32.17;;;25.90;;
22780;SDS011;11557;50.884;4.322;2022-09-24T04:00:46;30.48;;;23.10;;
22780;SDS011;11557;50.884;4.322;2022-09-24T04:03:11;32.72;;;25.73;;
22780;SDS011;11557;50.884;4.322;2022-09-24T04:05:37;32.67;;;25.50;;
22780;SDS011;11557;50.884;4.322;2022-09-24T04:08:04;36.53;;;27.35;;
22780;SDS011;11557;50.884;4.322;2022-09-24T04:10:30;35.97;;;27.75;;
22780;SDS011;11557;50.884;4.322;2022-09-24T04:12:56;36.63;;;27.50;;
22780;SDS011;11557;50.884;4.322;2022-09-24T04:15:22;37.53;;;27.08;;
22780;SDS011;11557;50.884;4.322;2022-09-24T04:17:48;35.78;;;27.77;;
22780;SDS011;11557;50.884;4.322;2022-09-24T04:20:15;35.00;;;28.15;;
22780;SDS011;11557;50.884;4.322;2022-09-24T04:22:40;38.33;;;28.70;;
22780;SDS011;11557;50.884;4.322;2022-09-24T04:25:06;39.75;;;29.73;;
22780;SDS011;11557;50.884;4.322;2022-09-24T04:27:32;38.97;;;28.98;;
22780;SDS011;11557;50.884;4.322;2022-09-24T04:30:00;40.13;;;28.33;;
22780;SDS011;11557;50.884;4.322;2022-09-24T04:32:25;36.75;;;26.85;;
22780;SDS011;11557;50.884;4.322;2022-09-24T04:34:51;37.97;;;28.00;;
22780;SDS011;11557;50.884;4.322;2022-09-24T04:37:16;38.35;;;29.20;;
22780;SDS011;11557;50.884;4.322;2022-09-24T04:39:42;38.00;;;29.27;;
22780;SDS011;11557;50.884;4.322;2022-09-24T04:42:07;39.60;;;30.52;;
22780;SDS011;11557;50.884;4.322;2022-09-24T04:44:33;37.58;;;28.10;;
22780;SDS011;11557;50.884;4.322;2022-09-24T04:46:59;37.33;;;28.70;;
22780;SDS011;11557;50.884;4.322;2022-09-24T04:49:27;37.30;;;30.17;;
22780;SDS011;11557;50.884;4.322;2022-09-24T04:51:53;34.25;;;26.70;;
22780;SDS011;11557;50.884;4.322;2022-09-24T04:54:22;35.58;;;26.75;;
22780;SDS011;11557;50.884;4.322;2022-09-24T04:56:48;36.03;;;27.63;;
22780;SDS011;11557;50.884;4.322;2022-09-24T04:59:14;34.75;;;27.10;;
22780;SDS011;11557;50.884;4.322;2022-09-24T05:01:39;36.30;;;29.05;;
22780;SDS011;11557;50.884;4.322;2022-09-24T05:04:05;39.25;;;29.70;;
22780;SDS011;11557;50.884;4.322;2022-09-24T05:06:31;39.17;;;27.83;;
22780;SDS011;11557;50.884;4.322;2022-09-24T05:08:57;36.70;;;27.33;;
22780;SDS011;11557;50.884;4.322;2022-09-24T05:11:22;35.05;;;27.75;;
22780;SDS011;11557;50.884;4.322;2022-09-24T05:13:48;42.88;;;28.42;;
22780;SDS011;11557;50.884;4.322;2022-09-24T05:16:14;33.15;;;26.85;;
22780;SDS011;11557;50.884;4.322;2022-09-24T05:18:40;37.30;;;27.55;;
22780;SDS011;11557;50.884;4.322;2022-09-24T05:21:05;33.75;;;26.73;;
22780;SDS011;11557;50.884;4.322;2022-09-24T05:23:31;28.02;;;24.38;;
22780;SDS011;11557;50.884;4.322;2022-09-24T05:25:56;37.17;;;28.25;;
22780;SDS011;11557;50.884;4.322;2022-09-24T05:28:40;33.92;;;27.45;;
22780;SDS011;11557;50.884;4.322;2022-09-24T05:31:06;35.58;;;25.50;;
22780;SDS011;11557;50.884;4.322;2022-09-24T05:33:34;34.10;;;26.33;;
22780;SDS011;11557;50.884;4.322;2022-09-24T05:36:00;37.33;;;26.45;;
22780;SDS011;11557;50.884;4.322;2022-09-24T05:38:26;35.65;;;27.25;;
22780;SDS011;11557;50.884;4.322;2022-09-24T05:40:53;38.22;;;27.60;;
22780;SDS011;11557;50.884;4.322;2022-09-24T05:43:19;38.67;;;29.23;;
22780;SDS011;11557;50.884;4.322;2022-09-24T05:45:45;38.50;;;27.98;;
22780;SDS011;11557;50.884;4.322;2022-09-24T05:48:15;37.30;;;27.85;;
22780;SDS011;11557;50.884;4.322;2022-09-24T05:50:41;38.30;;;27.98;;
22780;SDS011;11557;50.884;4.322;2022-09-24T05:53:06;38.05;;;28.98;;
22780;SDS011;11557;50.884;4.322;2022-09-24T05:55:33;38.90;;;28.73;;
22780;SDS011;11557;50.884;4.322;2022-09-24T05:58:03;35.08;;;27.45;;
22780;SDS011;11557;50.884;4.322;2022-09-24T06:00:30;39.72;;;28.83;;
22780;SDS011;11557;50.884;4.322;2022-09-24T06:03:02;39.97;;;27.60;;
22780;SDS011;11557;50.884;4.322;2022-09-24T06:05:34;37.35;;;27.05;;
22780;SDS011;11557;50.884;4.322;2022-09-24T06:08:01;39.33;;;27.95;;
22780;SDS011;11557;50.884;4.322;2022-09-24T06:10:27;40.00;;;28.40;;
22780;SDS011;11557;50.884;4.322;2022-09-24T06:12:53;38.20;;;27.98;;
22780;SDS011;11557;50.884;4.322;2022-09-24T06:15:19;38.83;;;27.42;;
22780;SDS011;11557;50.884;4.322;2022-09-24T06:17:45;39.95;;;28.58;;
22780;SDS011;11557;50.884;4.322;2022-09-24T06:20:12;40.38;;;27.90;;
22780;SDS011;11557;50.884;4.322;2022-09-24T06:22:38;37.85;;;27.95;;
22780;SDS011;11557;50.884;4.322;2022-09-24T06:25:04;36.78;;;27.08;;
22780;SDS011;11557;50.884;4.322;2022-09-24T06:27:31;37.28;;;27.45;;
22780;SDS011;11557;50.884;4.322;2022-09-24T06:29:56;37.92;;;29.48;;
22780;SDS011;11557;50.884;4.322;2022-09-24T06:32:22;41.17;;;28.50;;
22780;SDS011;11557;50.884;4.322;2022-09-24T06:34:49;39.80;;;27.60;;
22780;SDS011;11557;50.884;4.322;2022-09-24T06:37:15;38.33;;;28.38;;
22780;SDS011;11557;50.884;4.322;2022-09-24T06:39:40;37.70;;;27.83;;
22780;SDS011;11557;50.884;4.322;2022-09-24T06:42:06;36.03;;;26.90;;
22780;SDS011;11557;50.884;4.322;2022-09-24T06:44:32;35.90;;;26.33;;
22780;SDS011;11557;50.884;4.322;2022-09-24T06:46:58;35.67;;;27.50;;
22780;SDS011;11557;50.884;4.322;2022-09-24T06:49:25;40.78;;;28.00;;
22780;SDS011;11557;50.884;4.322;2022-09-24T06:51:54;35.65;;;26.83;;
22780;SDS011;11557;50.884;4.322;2022-09-24T06:54:20;33.33;;;26.85;;
22780;SDS011;11557;50.884;4.322;2022-09-24T06:56:47;39.83;;;26.80;;
22780;SDS011;11557;50.884;4.322;2022-09-24T06:59:13;34.70;;;25.65;;
22780;SDS011;11557;50.884;4.322;2022-09-24T07:01:38;34.60;;;26.60;;
22780;SDS011;11557;50.884;4.322;2022-09-24T07:04:04;34.10;;;25.67;;
22780;SDS011;11557;50.884;4.322;2022-09-24T07:06:32;35.85;;;26.55;;
22780;SDS011;11557;50.884;4.322;2022-09-24T07:09:18;35.25;;;26.08;;
22780;SDS011;11557;50.884;4.322;2022-09-24T07:11:44;37.35;;;26.10;;
22780;SDS011;11557;50.884;4.322;2022-09-24T07:14:12;37.38;;;26.25;;
22780;SDS011;11557;50.884;4.322;2022-09-24T07:16:38;36.88;;;26.13;;
22780;SDS011;11557;50.884;4.322;2022-09-24T07:19:03;40.53;;;27.65;;
22780;SDS011;11557;50.884;4.322;2022-09-24T07:21:29;41.13;;;30.13;;
22780;SDS011;11557;50.884;4.322;2022-09-24T07:23:55;39.90;;;27.60;;
22780;SDS011;11557;50.884;4.322;2022-09-24T07:26:20;39.25;;;28.73;;
22780;SDS011;11557;50.884;4.322;2022-09-24T07:28:46;46.58;;;31.80;;
22780;SDS011;11557;50.884;4.322;2022-09-24T07:31:12;41.05;;;28.50;;
22780;SDS011;11557;50.884;4.322;2022-09-24T07:33:37;41.53;;;28.70;;
22780;SDS011;11557;50.884;4.322;2022-09-24T07:36:05;37.50;;;27.17;;
22780;SDS011;11557;50.884;4.322;2022-09-24T07:38:31;38.15;;;27.50;;
22780;SDS011;11557;50.884;4.322;2022-09-24T07:40:59;37.65;;;25.10;;
22780;SDS011;11557;50.884;4.322;2022-09-24T07:43:24;38.35;;;25.92;;
22780;SDS011;11557;50.884;4.322;2022-09-24T07:45:51;39.63;;;26.95;;
22780;SDS011;11557;50.884;4.322;2022-09-24T07:48:18;37.03;;;27.02;;
22780;SDS011;11557;50.884;4.322;2022-09-24T07:50:43;33.45;;;27.23;;
22780;SDS011;11557;50.884;4.322;2022-09-24T07:53:10;38.40;;;27.60;;
22780;SDS011;11557;50.884;4.322;2022-09-24T07:55:36;34.00;;;26.73;;
22780;SDS011;11557;50.884;4.322;2022-09-24T07:58:05;40.30;;;27.38;;
22780;SDS011;11557;50.884;4.322;2022-09-24T08:00:37;36.15;;;26.88;;
22780;SDS011;11557;50.884;4.322;2022-09-24T08:03:03;36.20;;;27.08;;
22780;SDS011;11557;50.884;4.322;2022-09-24T08:05:29;41.50;;;27.25;;
22780;SDS011;11557;50.884;4.322;2022-09-24T08:07:56;36.85;;;27.33;;
22780;SDS011;11557;50.884;4.322;2022-09-24T08:10:22;33.03;;;26.98;;
22780;SDS011;11557;50.884;4.322;2022-09-24T08:12:49;36.58;;;27.33;;
22780;SDS011;11557;50.884;4.322;2022-09-24T08:15:15;34.35;;;25.67;;
22780;SDS011;11557;50.884;4.322;2022-09-24T08:17:41;38.17;;;25.77;;
22780;SDS011;11557;50.884;4.322;2022-09-24T08:20:06;40.90;;;26.55;;
22780;SDS011;11557;50.884;4.322;2022-09-24T08:22:32;41.72;;;27.13;;
22780;SDS011;11557;50.884;4.322;2022-09-24T08:24:58;34.58;;;26.83;;
22780;SDS011;11557;50.884;4.322;2022-09-24T08:27:24;35.92;;;26.60;;
22780;SDS011;11557;50.884;4.322;2022-09-24T08:29:50;32.53;;;24.25;;
22780;SDS011;11557;50.884;4.322;2022-09-24T08:32:16;35.40;;;25.85;;
22780;SDS011;11557;50.884;4.322;2022-09-24T08:34:42;37.42;;;26.80;;
22780;SDS011;11557;50.884;4.322;2022-09-24T08:37:09;33.67;;;24.55;;
22780;SDS011;11557;50.884;4.322;2022-09-24T08:39:35;31.92;;;24.75;;
22780;SDS011;11557;50.884;4.322;2022-09-24T08:42:03;34.53;;;24.40;;
22780;SDS011;11557;50.884;4.322;2022-09-24T08:44:38;31.33;;;22.80;;
22780;SDS011;11557;50.884;4.322;2022-09-24T08:47:42;33.45;;;24.10;;
22780;SDS011;11557;50.884;4.322;2022-09-24T08:50:21;35.80;;;24.27;;
22780;SDS011;11557;50.884;4.322;2022-09-24T08:53:04;32.00;;;22.10;;
22780;SDS011;11557;50.884;4.322;2022-09-24T08:56:03;25.45;;;20.55;;
22780;SDS011;11557;50.884;4.322;2022-09-24T09:01:38;30.05;;;21.08;;
22780;SDS011;11557;50.884;4.322;2022-09-24T09:07:26;27.35;;;20.50;;
22780;SDS011;11557;50.884;4.322;2022-09-24T09:10:10;27.55;;;21.55;;
22780;SDS011;11557;50.884;4.322;2022-09-24T09:12:44;28.52;;;20.77;;
22780;SDS011;11557;50.884;4.322;2022-09-24T09:15:20;27.77;;;21.38;;
22780;SDS011;11557;50.884;4.322;2022-09-24T09:18:03;27.83;;;20.92;;
22780;SDS011;11557;50.884;4.322;2022-09-24T09:23:10;29.73;;;20.13;;
22780;SDS011;11557;50.884;4.322;2022-09-24T09:25:45;27.42;;;19.80;;
22780;SDS011;11557;50.884;4.322;2022-09-24T09:28:16;28.73;;;19.77;;
22780;SDS011;11557;50.884;4.322;2022-09-24T09:45:00;26.35;;;18.70;;
22780;SDS011;11557;50.884;4.322;2022-09-24T09:50:09;24.77;;;19.38;;
22780;SDS011;11557;50.884;4.322;2022-09-24T09:55:23;27.85;;;20.25;;
22780;SDS011;11557;50.884;4.322;2022-09-24T09:57:59;29.30;;;20.73;;
22780;SDS011;11557;50.884;4.322;2022-09-24T10:00:40;29.60;;;23.20;;
22780;SDS011;11557;50.884;4.322;2022-09-24T10:06:24;34.38;;;23.63;;
22780;SDS011;11557;50.884;4.322;2022-09-24T10:08:50;33.28;;;23.95;;
22780;SDS011;11557;50.884;4.322;2022-09-24T10:11:16;31.15;;;24.13;;
22780;SDS011;11557;50.884;4.322;2022-09-24T10:13:43;33.67;;;25.17;;
22780;SDS011;11557;50.884;4.322;2022-09-24T10:16:09;34.92;;;25.80;;
22780;SDS011;11557;50.884;4.322;2022-09-24T10:18:52;32.20;;;25.05;;
22780;SDS011;11557;50.884;4.322;2022-09-24T10:21:25;34.08;;;25.45;;
22780;SDS011;11557;50.884;4.322;2022-09-24T10:23:58;36.13;;;26.20;;
22780;SDS011;11557;50.884;4.322;2022-09-24T10:26:39;34.58;;;25.92;;
22780;SDS011;11557;50.884;4.322;2022-09-24T10:29:17;36.42;;;25.67;;
22780;SDS011;11557;50.884;4.322;2022-09-24T10:32:05;31.77;;;24.58;;
22780;SDS011;11557;50.884;4.322;2022-09-24T10:34:38;38.50;;;24.77;;
22780;SDS011;11557;50.884;4.322;2022-09-24T10:37:11;30.40;;;23.15;;
22780;SDS011;11557;50.884;4.322;2022-09-24T10:39:40;31.05;;;24.30;;
22780;SDS011;11557;50.884;4.322;2022-09-24T10:42:12;33.45;;;25.25;;
22780;SDS011;11557;50.884;4.322;2022-09-24T10:44:48;31.40;;;23.48;;
22780;SDS011;11557;50.884;4.322;2022-09-24T10:52:45;29.52;;;22.92;;
22780;SDS011;11557;50.884;4.322;2022-09-24T11:04:07;30.17;;;24.15;;
22780;SDS011;11557;50.884;4.322;2022-09-24T11:09:31;27.30;;;22.38;;
22780;SDS011;11557;50.884;4.322;2022-09-24T11:17:55;27.75;;;22.67;;
22780;SDS011;11557;50.884;4.322;2022-09-24T11:23:16;29.70;;;23.38;;
22780;SDS011;11557;50.884;4.322;2022-09-24T11:25:52;28.27;;;22.40;;
22780;SDS011;11557;50.884;4.322;2022-09-24T11:53:38;32.28;;;25.00;;
22780;SDS011;11557;50.884;4.322;2022-09-24T11:56:17;31.00;;;25.83;;
22780;SDS011;11557;50.884;4.322;2022-09-24T11:58:55;29.30;;;23.65;;
22780;SDS011;11557;50.884;4.322;2022-09-24T12:01:43;30.02;;;25.35;;
22780;SDS011;11557;50.884;4.322;2022-09-24T12:04:16;39.97;;;26.90;;
22780;SDS011;11557;50.884;4.322;2022-09-24T12:06:56;35.33;;;27.05;;
22780;SDS011;11557;50.884;4.322;2022-09-24T12:09:32;34.13;;;28.00;;
22780;SDS011;11557;50.884;4.322;2022-09-24T12:12:23;37.55;;;27.95;;
22780;SDS011;11557;50.884;4.322;2022-09-24T12:14:58;33.65;;;27.13;;
22780;SDS011;11557;50.884;4.322;2022-09-24T12:17:41;32.25;;;27.20;;
22780;SDS011;11557;50.884;4.322;2022-09-24T12:20:15;32.53;;;26.60;;
22780;SDS011;11557;50.884;4.322;2022-09-24T12:22:44;32.20;;;27.85;;
22780;SDS011;11557;50.884;4.322;2022-09-24T12:25:13;35.60;;;26.45;;
22780;SDS011;11557;50.884;4.322;2022-09-24T12:27:39;35.30;;;27.60;;
22780;SDS011;11557;50.884;4.322;2022-09-24T12:33:27;32.53;;;26.73;;
22780;SDS011;11557;50.884;4.322;2022-09-24T12:38:51;34.13;;;25.45;;
22780;SDS011;11557;50.884;4.322;2022-09-24T12:51:46;38.70;;;27.85;;
22780;SDS011;11557;50.884;4.322;2022-09-24T12:54:23;36.10;;;27.63;;
22780;SDS011;11557;50.884;4.322;2022-09-24T12:57:16;30.98;;;24.20;;
22780;SDS011;11557;50.884;4.322;2022-09-24T13:00:32;35.25;;;27.20;;
22780;SDS011;11557;50.884;4.322;2022-09-24T13:02:52;37.13;;;27.83;;
22780;SDS011;11557;50.884;4.322;2022-09-24T13:07:59;33.55;;;26.02;;
22780;SDS011;11557;50.884;4.322;2022-09-24T13:10:53;34.15;;;27.38;;
22780;SDS011;11557;50.884;4.322;2022-09-24T13:13:27;37.97;;;27.38;;
22780;SDS011;11557;50.884;4.322;2022-09-24T13:16:03;34.30;;;25.58;;
22780;SDS011;11557;50.884;4.322;2022-09-24T13:18:39;29.70;;;25.90;;
22780;SDS011;11557;50.884;4.322;2022-09-24T13:21:05;26.10;;;22.25;;
22780;SDS011;11557;50.884;4.322;2022-09-24T13:26:02;27.40;;;23.65;;
22780;SDS011;11557;50.884;4.322;2022-09-24T13:33:57;26.35;;;22.52;;
22780;SDS011;11557;50.884;4.322;2022-09-24T13:36:43;25.30;;;22.58;;
22780;SDS011;11557;50.884;4.322;2022-09-24T13:39:40;24.65;;;22.00;;
22780;SDS011;11557;50.884;4.322;2022-09-24T13:45:16;23.73;;;21.23;;
22780;SDS011;11557;50.884;4.322;2022-09-24T13:47:46;26.35;;;21.85;;
22780;SDS011;11557;50.884;4.322;2022-09-24T13:53:34;25.95;;;23.23;;
22780;SDS011;11557;50.884;4.322;2022-09-24T13:56:11;24.80;;;21.77;;
22780;SDS011;11557;50.884;4.322;2022-09-24T13:58:40;24.55;;;21.92;;
22780;SDS011;11557;50.884;4.322;2022-09-24T14:01:12;24.27;;;21.58;;
22780;SDS011;11557;50.884;4.322;2022-09-24T14:03:58;26.17;;;22.25;;
22780;SDS011;11557;50.884;4.322;2022-09-24T14:06:37;25.23;;;21.80;;
22780;SDS011;11557;50.884;4.322;2022-09-24T14:09:16;27.33;;;21.05;;
22780;SDS011;11557;50.884;4.322;2022-09-24T14:14:22;21.05;;;18.63;;
22780;SDS011;11557;50.884;4.322;2022-09-24T14:16:50;23.38;;;18.88;;
22780;SDS011;11557;50.884;4.322;2022-09-24T14:19:19;19.98;;;17.88;;
22780;SDS011;11557;50.884;4.322;2022-09-24T14:22:01;19.13;;;17.08;;
22780;SDS011;11557;50.884;4.322;2022-09-24T14:24:39;19.02;;;17.20;;
22780;SDS011;11557;50.884;4.322;2022-09-24T14:27:14;17.52;;;15.85;;
22780;SDS011;11557;50.884;4.322;2022-09-24T14:29:44;18.02;;;16.30;;
22780;SDS011;11557;50.884;4.322;2022-09-24T14:32:21;18.60;;;15.00;;
22780;SDS011;11557;50.884;4.322;2022-09-24T14:34:58;15.95;;;13.35;;
22780;SDS011;11557;50.884;4.322;2022-09-24T14:37:28;14.10;;;12.68;;
22780;SDS011;11557;50.884;4.322;2022-09-24T14:40:10;13.18;;;11.77;;
22780;SDS011;11557;50.884;4.322;2022-09-24T14:42:39;12.70;;;11.50;;
22780;SDS011;11557;50.884;4.322;2022-09-24T14:45:32;14.55;;;13.00;;
22780;SDS011;11557;50.884;4.322;2022-09-24T14:48:03;14.85;;;13.35;;
22780;SDS011;11557;50.884;4.322;2022-09-24T14:50:40;14.40;;;13.02;;
22780;SDS011;11557;50.884;4.322;2022-09-24T14:53:39;15.70;;;13.98;;
22780;SDS011;11557;50.884;4.322;2022-09-24T14:56:05;16.52;;;14.05;;
22780;SDS011;11557;50.884;4.322;2022-09-24T15:01:14;13.55;;;12.35;;
22780;SDS011;11557;50.884;4.322;2022-09-24T15:03:48;13.82;;;12.52;;
22780;SDS011;11557;50.884;4.322;2022-09-24T15:06:23;13.40;;;12.13;;
22780;SDS011;11557;50.884;4.322;2022-09-24T15:11:25;14.30;;;12.48;;
22780;SDS011;11557;50.884;4.322;2022-09-24T15:13:57;11.65;;;10.65;;
22780;SDS011;11557;50.884;4.322;2022-09-24T15:16:32;14.95;;;10.68;;
22780;SDS011;11557;50.884;4.322;2022-09-24T15:21:54;10.73;;;9.57;;
22780;SDS011;11557;50.884;4.322;2022-09-24T15:24:21;15.25;;;10.02;;
22780;SDS011;11557;50.884;4.322;2022-09-24T15:27:34;10.07;;;8.85;;
22780;SDS011;11557;50.884;4.322;2022-09-24T15:29:42;11.75;;;8.38;;
22780;SDS011;11557;50.884;4.322;2022-09-24T15:32:19;10.98;;;8.27;;
22780;SDS011;11557;50.884;4.322;2022-09-24T15:34:51;9.10;;;8.27;;
22780;SDS011;11557;50.884;4.322;2022-09-24T15:37:24;9.30;;;7.72;;
22780;SDS011;11557;50.884;4.322;2022-09-24T15:40:07;8.20;;;6.93;;
22780;SDS011;11557;50.884;4.322;2022-09-24T15:42:39;7.78;;;6.97;;
22780;SDS011;11557;50.884;4.322;2022-09-24T15:45:13;9.48;;;6.65;;
22780;SDS011;11557;50.884;4.322;2022-09-24T15:47:50;9.63;;;6.72;;
22780;SDS011;11557;50.884;4.322;2022-09-24T15:50:18;7.63;;;6.75;;
22780;SDS011;11557;50.884;4.322;2022-09-24T15:55:19;10.23;;;7.38;;
22780;SDS011;11557;50.884;4.322;2022-09-24T15:57:46;10.52;;;8.43;;
22780;SDS011;11557;50.884;4.322;2022-09-24T16:00:19;10.13;;;9.10;;
22780;SDS011;11557;50.884;4.322;2022-09-24T16:02:49;11.02;;;9.77;;
22780;SDS011;11557;50.884;4.322;2022-09-24T16:05:17;13.23;;;9.07;;
22780;SDS011;11557;50.884;4.322;2022-09-24T16:08:04;11.85;;;9.02;;
22780;SDS011;11557;50.884;4.322;2022-09-24T16:10:29;10.70;;;7.32;;
22780;SDS011;11557;50.884;4.322;2022-09-24T16:12:55;8.48;;;6.22;;
22780;SDS011;11557;50.884;4.322;2022-09-24T16:15:21;9.07;;;5.38;;
22780;SDS011;11557;50.884;4.322;2022-09-24T16:17:48;5.65;;;4.90;;
22780;SDS011;11557;50.884;4.322;2022-09-24T16:20:14;7.38;;;5.32;;
22780;SDS011;11557;50.884;4.322;2022-09-24T16:22:40;6.38;;;5.05;;
22780;SDS011;11557;50.884;4.322;2022-09-24T16:25:06;8.27;;;5.28;;
22780;SDS011;11557;50.884;4.322;2022-09-24T16:27:32;5.95;;;5.05;;
22780;SDS011;11557;50.884;4.322;2022-09-24T16:29:59;7.43;;;4.78;;
22780;SDS011;11557;50.884;4.322;2022-09-24T16:32:26;9.10;;;4.43;;
22780;SDS011;11557;50.884;4.322;2022-09-24T16:34:51;7.53;;;4.68;;
22780;SDS011;11557;50.884;4.322;2022-09-24T16:37:19;7.93;;;5.10;;
22780;SDS011;11557;50.884;4.322;2022-09-24T16:39:45;9.15;;;5.40;;
22780;SDS011;11557;50.884;4.322;2022-09-24T16:42:11;8.20;;;4.97;;
22780;SDS011;11557;50.884;4.322;2022-09-24T16:44:37;8.00;;;5.35;;
22780;SDS011;11557;50.884;4.322;2022-09-24T16:47:02;11.43;;;6.93;;
22780;SDS011;11557;50.884;4.322;2022-09-24T16:49:28;11.32;;;7.60;;
22780;SDS011;11557;50.884;4.322;2022-09-24T16:51:54;9.85;;;7.55;;
22780;SDS011;11557;50.884;4.322;2022-09-24T16:54:20;11.43;;;6.20;;
22780;SDS011;11557;50.884;4.322;2022-09-24T16:56:50;7.43;;;5.90;;
22780;SDS011;11557;50.884;4.322;2022-09-24T16:59:16;9.88;;;5.30;;
22780;SDS011;11557;50.884;4.322;2022-09-24T17:01:42;7.00;;;4.95;;
22780;SDS011;11557;50.884;4.322;2022-09-24T17:04:08;7.57;;;5.10;;
22780;SDS011;11557;50.884;4.322;2022-09-24T17:06:34;11.32;;;4.47;;
22780;SDS011;11557;50.884;4.322;2022-09-24T17:09:01;12.35;;;4.75;;